sensor_id;sensor_type;location;lat;lon;timestamp;temperature;humidity
22430;DHT22;11382;48.086;11.632;2023-05-29T00:00:50;10.50;99.90
22430;DHT22;11382;48.086;11.632;2023-05-29T00:03:18;10.50;99.90
22430;DHT22;11382;48.086;11.632;2023-05-29T00:05:47;10.40;99.90
22430;DHT22;11382;48.086;11.632;2023-05-29T00:08:15;10.40;99.90
22430;DHT22;11382;48.086;11.632;2023-05-29T00:10:45;10.30;99.90
22430;DHT22;11382;48.086;11.632;2023-05-29T00:13:13;10.20;99.90
22430;DHT22;11382;48.086;11.632;2023-05-29T00:15:41;10.10;99.90
22430;DHT22;11382;48.086;11.632;2023-05-29T00:18:08;10.20;99.90
22430;DHT22;11382;48.086;11.632;2023-05-29T00:20:36;10.10;99.90
22430;DHT22;11382;48.086;11.632;2023-05-29T00:23:04;10.20;99.90
22430;DHT22;11382;48.086;11.632;2023-05-29T00:25:34;10.20;99.90
22430;DHT22;11382;48.086;11.632;2023-05-29T00:28:03;10.20;99.90
22430;DHT22;11382;48.086;11.632;2023-05-29T00:30:32;10.20;99.90
22430;DHT22;11382;48.086;11.632;2023-05-29T00:33:00;10.10;99.90
22430;DHT22;11382;48.086;11.632;2023-05-29T00:35:28;10.10;99.90
22430;DHT22;11382;48.086;11.632;2023-05-29T00:37:57;10.10;99.90
22430;DHT22;11382;48.086;11.632;2023-05-29T00:40:26;10.10;99.90
22430;DHT22;11382;48.086;11.632;2023-05-29T00:42:53;10.00;99.90
22430;DHT22;11382;48.086;11.632;2023-05-29T00:45:23;10.00;99.90
22430;DHT22;11382;48.086;11.632;2023-05-29T00:47:53;9.90;99.90
22430;DHT22;11382;48.086;11.632;2023-05-29T00:50:21;9.90;99.90
22430;DHT22;11382;48.086;11.632;2023-05-29T00:52:50;9.90;99.90
22430;DHT22;11382;48.086;11.632;2023-05-29T00:55:18;9.80;99.90
22430;DHT22;11382;48.086;11.632;2023-05-29T00:57:47;9.80;99.90
22430;DHT22;11382;48.086;11.632;2023-05-29T01:00:17;9.80;99.90
22430;DHT22;11382;48.086;11.632;2023-05-29T01:02:47;9.80;99.90
22430;DHT22;11382;48.086;11.632;2023-05-29T01:05:16;9.70;99.90
22430;DHT22;11382;48.086;11.632;2023-05-29T01:07:46;9.70;99.90
22430;DHT22;11382;48.086;11.632;2023-05-29T01:10:16;9.70;99.90
22430;DHT22;11382;48.086;11.632;2023-05-29T01:12:49;9.70;99.90
22430;DHT22;11382;48.086;11.632;2023-05-29T01:15:28;9.70;99.90
22430;DHT22;11382;48.086;11.632;2023-05-29T01:18:12;9.60;99.90
22430;DHT22;11382;48.086;11.632;2023-05-29T01:20:50;9.60;99.90
22430;DHT22;11382;48.086;11.632;2023-05-29T01:23:35;9.60;99.90
22430;DHT22;11382;48.086;11.632;2023-05-29T01:26:17;9.60;99.90
22430;DHT22;11382;48.086;11.632;2023-05-29T01:28:52;9.60;99.90
22430;DHT22;11382;48.086;11.632;2023-05-29T01:31:25;9.60;99.90
22430;DHT22;11382;48.086;11.632;2023-05-29T01:33:54;9.50;99.90
22430;DHT22;11382;48.086;11.632;2023-05-29T01:36:23;9.50;99.90
22430;DHT22;11382;48.086;11.632;2023-05-29T01:38:53;9.40;99.90
22430;DHT22;11382;48.086;11.632;2023-05-29T01:41:22;9.40;99.90
22430;DHT22;11382;48.086;11.632;2023-05-29T01:43:53;9.30;99.90
22430;DHT22;11382;48.086;11.632;2023-05-29T01:46:22;9.30;99.90
22430;DHT22;11382;48.086;11.632;2023-05-29T01:48:53;9.30;99.90
22430;DHT22;11382;48.086;11.632;2023-05-29T01:51:22;9.20;99.90
22430;DHT22;11382;48.086;11.632;2023-05-29T01:53:50;9.20;99.90
22430;DHT22;11382;48.086;11.632;2023-05-29T01:56:18;9.20;99.90
22430;DHT22;11382;48.086;11.632;2023-05-29T01:58:47;9.20;99.90
22430;DHT22;11382;48.086;11.632;2023-05-29T02:01:17;9.20;99.90
22430;DHT22;11382;48.086;11.632;2023-05-29T02:03:45;9.20;99.90
22430;DHT22;11382;48.086;11.632;2023-05-29T02:06:13;9.20;99.90
22430;DHT22;11382;48.086;11.632;2023-05-29T02:08:41;9.20;99.90
22430;DHT22;11382;48.086;11.632;2023-05-29T02:11:09;9.10;99.90
22430;DHT22;11382;48.086;11.632;2023-05-29T02:13:37;9.10;99.90
22430;DHT22;11382;48.086;11.632;2023-05-29T02:16:05;9.10;99.90
22430;DHT22;11382;48.086;11.632;2023-05-29T02:18:35;9.10;99.90
22430;DHT22;11382;48.086;11.632;2023-05-29T02:21:05;9.00;99.90
22430;DHT22;11382;48.086;11.632;2023-05-29T02:23:33;9.00;99.90
22430;DHT22;11382;48.086;11.632;2023-05-29T02:26:01;9.00;99.90
22430;DHT22;11382;48.086;11.632;2023-05-29T02:28:29;9.00;99.90
22430;DHT22;11382;48.086;11.632;2023-05-29T02:30:58;9.00;99.90
22430;DHT22;11382;48.086;11.632;2023-05-29T02:33:26;9.00;99.90
22430;DHT22;11382;48.086;11.632;2023-05-29T02:35:55;8.90;99.90
22430;DHT22;11382;48.086;11.632;2023-05-29T02:38:23;8.90;99.90
22430;DHT22;11382;48.086;11.632;2023-05-29T02:40:51;8.90;99.90
22430;DHT22;11382;48.086;11.632;2023-05-29T02:43:21;8.80;99.90
22430;DHT22;11382;48.086;11.632;2023-05-29T02:45:49;8.80;99.90
22430;DHT22;11382;48.086;11.632;2023-05-29T02:48:17;8.70;99.90
22430;DHT22;11382;48.086;11.632;2023-05-29T02:50:45;8.60;99.90
22430;DHT22;11382;48.086;11.632;2023-05-29T02:53:14;8.60;99.90
22430;DHT22;11382;48.086;11.632;2023-05-29T02:55:42;8.60;99.90
22430;DHT22;11382;48.086;11.632;2023-05-29T02:58:10;8.60;99.90
22430;DHT22;11382;48.086;11.632;2023-05-29T03:00:39;8.70;99.90
22430;DHT22;11382;48.086;11.632;2023-05-29T03:03:07;8.60;99.90
22430;DHT22;11382;48.086;11.632;2023-05-29T03:05:38;8.60;99.90
22430;DHT22;11382;48.086;11.632;2023-05-29T03:08:06;8.50;99.90
22430;DHT22;11382;48.086;11.632;2023-05-29T03:10:35;8.50;99.90
22430;DHT22;11382;48.086;11.632;2023-05-29T03:13:03;8.40;99.90
22430;DHT22;11382;48.086;11.632;2023-05-29T03:15:34;8.40;99.90
22430;DHT22;11382;48.086;11.632;2023-05-29T03:18:02;8.50;99.90
22430;DHT22;11382;48.086;11.632;2023-05-29T03:20:31;8.50;99.90
22430;DHT22;11382;48.086;11.632;2023-05-29T03:23:00;8.50;99.90
22430;DHT22;11382;48.086;11.632;2023-05-29T03:25:29;8.50;99.90
22430;DHT22;11382;48.086;11.632;2023-05-29T03:27:58;8.50;99.90
22430;DHT22;11382;48.086;11.632;2023-05-29T03:30:27;8.40;99.90
22430;DHT22;11382;48.086;11.632;2023-05-29T03:32:55;8.40;99.90
22430;DHT22;11382;48.086;11.632;2023-05-29T03:35:38;8.40;99.90
22430;DHT22;11382;48.086;11.632;2023-05-29T03:38:06;8.50;99.90
22430;DHT22;11382;48.086;11.632;2023-05-29T03:40:34;8.50;99.90
22430;DHT22;11382;48.086;11.632;2023-05-29T03:43:05;8.50;99.90
22430;DHT22;11382;48.086;11.632;2023-05-29T03:45:33;8.50;99.90
22430;DHT22;11382;48.086;11.632;2023-05-29T03:48:01;8.60;99.90
22430;DHT22;11382;48.086;11.632;2023-05-29T03:50:29;8.60;99.90
22430;DHT22;11382;48.086;11.632;2023-05-29T03:52:57;8.50;99.90
22430;DHT22;11382;48.086;11.632;2023-05-29T03:55:26;8.50;99.90
22430;DHT22;11382;48.086;11.632;2023-05-29T03:57:54;8.70;99.90
22430;DHT22;11382;48.086;11.632;2023-05-29T04:00:24;8.80;99.90
22430;DHT22;11382;48.086;11.632;2023-05-29T04:02:55;8.90;99.90
22430;DHT22;11382;48.086;11.632;2023-05-29T04:05:23;9.00;99.90
22430;DHT22;11382;48.086;11.632;2023-05-29T04:07:52;9.10;99.90
22430;DHT22;11382;48.086;11.632;2023-05-29T04:10:30;9.20;99.90
22430;DHT22;11382;48.086;11.632;2023-05-29T04:13:00;9.30;99.90
22430;DHT22;11382;48.086;11.632;2023-05-29T04:15:29;9.50;99.90
22430;DHT22;11382;48.086;11.632;2023-05-29T04:17:59;9.70;99.90
22430;DHT22;11382;48.086;11.632;2023-05-29T04:20:28;9.90;99.90
22430;DHT22;11382;48.086;11.632;2023-05-29T04:22:56;10.20;99.90
22430;DHT22;11382;48.086;11.632;2023-05-29T04:25:24;10.50;99.90
22430;DHT22;11382;48.086;11.632;2023-05-29T04:27:53;10.70;99.90
22430;DHT22;11382;48.086;11.632;2023-05-29T04:30:22;10.90;99.90
22430;DHT22;11382;48.086;11.632;2023-05-29T04:32:51;11.00;99.90
22430;DHT22;11382;48.086;11.632;2023-05-29T04:35:22;11.30;99.90
22430;DHT22;11382;48.086;11.632;2023-05-29T04:37:56;11.50;99.90
22430;DHT22;11382;48.086;11.632;2023-05-29T04:40:28;11.70;99.90
22430;DHT22;11382;48.086;11.632;2023-05-29T04:42:58;12.20;99.90
22430;DHT22;11382;48.086;11.632;2023-05-29T04:45:31;12.60;99.90
22430;DHT22;11382;48.086;11.632;2023-05-29T04:48:00;12.60;99.90
22430;DHT22;11382;48.086;11.632;2023-05-29T04:50:28;13.10;99.90
22430;DHT22;11382;48.086;11.632;2023-05-29T04:52:58;13.70;99.90
22430;DHT22;11382;48.086;11.632;2023-05-29T04:55:26;14.30;99.90
22430;DHT22;11382;48.086;11.632;2023-05-29T04:57:54;14.60;99.90
22430;DHT22;11382;48.086;11.632;2023-05-29T05:00:23;14.90;99.90
22430;DHT22;11382;48.086;11.632;2023-05-29T05:02:52;15.30;99.90
22430;DHT22;11382;48.086;11.632;2023-05-29T05:05:21;15.80;99.90
22430;DHT22;11382;48.086;11.632;2023-05-29T05:07:55;16.40;99.90
22430;DHT22;11382;48.086;11.632;2023-05-29T05:10:24;17.00;99.90
22430;DHT22;11382;48.086;11.632;2023-05-29T05:12:51;17.60;99.90
22430;DHT22;11382;48.086;11.632;2023-05-29T05:15:21;18.00;99.90
22430;DHT22;11382;48.086;11.632;2023-05-29T05:17:49;18.70;99.90
22430;DHT22;11382;48.086;11.632;2023-05-29T05:20:18;19.30;99.90
22430;DHT22;11382;48.086;11.632;2023-05-29T05:22:54;19.80;99.90
22430;DHT22;11382;48.086;11.632;2023-05-29T05:25:22;20.30;99.90
22430;DHT22;11382;48.086;11.632;2023-05-29T05:27:50;20.60;99.90
22430;DHT22;11382;48.086;11.632;2023-05-29T05:30:20;21.70;98.40
22430;DHT22;11382;48.086;11.632;2023-05-29T05:32:49;22.30;95.80
22430;DHT22;11382;48.086;11.632;2023-05-29T05:35:17;22.60;94.70
22430;DHT22;11382;48.086;11.632;2023-05-29T05:37:46;22.70;94.70
22430;DHT22;11382;48.086;11.632;2023-05-29T05:40:16;23.00;94.60
22430;DHT22;11382;48.086;11.632;2023-05-29T05:42:52;23.40;94.10
22430;DHT22;11382;48.086;11.632;2023-05-29T05:45:31;24.20;92.50
22430;DHT22;11382;48.086;11.632;2023-05-29T05:47:59;25.10;90.90
22430;DHT22;11382;48.086;11.632;2023-05-29T05:50:29;25.70;87.00
22430;DHT22;11382;48.086;11.632;2023-05-29T05:52:57;26.00;83.20
22430;DHT22;11382;48.086;11.632;2023-05-29T05:55:27;26.40;82.00
22430;DHT22;11382;48.086;11.632;2023-05-29T05:57:55;26.80;80.00
22430;DHT22;11382;48.086;11.632;2023-05-29T06:00:23;27.30;79.70
22430;DHT22;11382;48.086;11.632;2023-05-29T06:02:55;27.50;74.00
22430;DHT22;11382;48.086;11.632;2023-05-29T06:05:48;28.40;71.40
22430;DHT22;11382;48.086;11.632;2023-05-29T06:08:17;28.90;69.50
22430;DHT22;11382;48.086;11.632;2023-05-29T06:10:47;28.90;68.40
22430;DHT22;11382;48.086;11.632;2023-05-29T06:13:15;29.20;66.70
22430;DHT22;11382;48.086;11.632;2023-05-29T06:15:52;28.30;64.40
22430;DHT22;11382;48.086;11.632;2023-05-29T06:18:20;28.10;65.70
22430;DHT22;11382;48.086;11.632;2023-05-29T06:20:48;28.40;64.50
22430;DHT22;11382;48.086;11.632;2023-05-29T06:23:16;29.00;63.80
22430;DHT22;11382;48.086;11.632;2023-05-29T06:25:44;29.50;64.60
22430;DHT22;11382;48.086;11.632;2023-05-29T06:28:15;30.70;62.50
22430;DHT22;11382;48.086;11.632;2023-05-29T06:30:43;31.70;59.10
22430;DHT22;11382;48.086;11.632;2023-05-29T06:33:19;31.60;58.00
22430;DHT22;11382;48.086;11.632;2023-05-29T06:35:48;31.50;56.80
22430;DHT22;11382;48.086;11.632;2023-05-29T06:38:16;32.60;57.60
22430;DHT22;11382;48.086;11.632;2023-05-29T06:40:44;33.00;55.10
22430;DHT22;11382;48.086;11.632;2023-05-29T06:43:13;33.10;54.90
22430;DHT22;11382;48.086;11.632;2023-05-29T06:45:47;33.80;53.70
22430;DHT22;11382;48.086;11.632;2023-05-29T06:48:16;34.90;52.60
22430;DHT22;11382;48.086;11.632;2023-05-29T06:50:47;34.40;51.20
22430;DHT22;11382;48.086;11.632;2023-05-29T06:53:34;35.60;50.00
22430;DHT22;11382;48.086;11.632;2023-05-29T06:56:03;35.90;49.00
22430;DHT22;11382;48.086;11.632;2023-05-29T06:58:33;36.10;49.10
22430;DHT22;11382;48.086;11.632;2023-05-29T07:01:03;35.30;49.30
22430;DHT22;11382;48.086;11.632;2023-05-29T07:03:36;35.70;46.70
22430;DHT22;11382;48.086;11.632;2023-05-29T07:06:05;36.20;46.80
22430;DHT22;11382;48.086;11.632;2023-05-29T07:08:35;35.40;45.40
22430;DHT22;11382;48.086;11.632;2023-05-29T07:11:06;35.10;47.90
22430;DHT22;11382;48.086;11.632;2023-05-29T07:13:34;35.70;46.50
22430;DHT22;11382;48.086;11.632;2023-05-29T07:16:04;36.10;45.70
22430;DHT22;11382;48.086;11.632;2023-05-29T07:18:52;36.30;46.40
22430;DHT22;11382;48.086;11.632;2023-05-29T07:21:20;35.70;44.70
22430;DHT22;11382;48.086;11.632;2023-05-29T07:23:48;34.50;44.80
22430;DHT22;11382;48.086;11.632;2023-05-29T07:26:16;35.10;45.60
22430;DHT22;11382;48.086;11.632;2023-05-29T07:28:45;36.00;44.30
22430;DHT22;11382;48.086;11.632;2023-05-29T07:31:14;35.80;46.20
22430;DHT22;11382;48.086;11.632;2023-05-29T07:33:42;36.90;43.10
22430;DHT22;11382;48.086;11.632;2023-05-29T07:36:12;37.40;45.00
22430;DHT22;11382;48.086;11.632;2023-05-29T07:38:41;37.60;42.40
22430;DHT22;11382;48.086;11.632;2023-05-29T07:41:10;36.70;42.40
22430;DHT22;11382;48.086;11.632;2023-05-29T07:43:39;37.70;43.00
22430;DHT22;11382;48.086;11.632;2023-05-29T07:46:08;38.70;41.50
22430;DHT22;11382;48.086;11.632;2023-05-29T07:48:41;38.90;41.30
22430;DHT22;11382;48.086;11.632;2023-05-29T07:51:09;39.70;40.80
22430;DHT22;11382;48.086;11.632;2023-05-29T07:53:40;39.20;40.70
22430;DHT22;11382;48.086;11.632;2023-05-29T07:56:11;40.00;40.40
22430;DHT22;11382;48.086;11.632;2023-05-29T07:58:40;38.10;39.00
22430;DHT22;11382;48.086;11.632;2023-05-29T08:01:09;38.70;41.30
22430;DHT22;11382;48.086;11.632;2023-05-29T08:03:38;38.80;41.50
22430;DHT22;11382;48.086;11.632;2023-05-29T08:06:26;38.60;42.20
22430;DHT22;11382;48.086;11.632;2023-05-29T08:08:56;38.90;40.20
22430;DHT22;11382;48.086;11.632;2023-05-29T08:11:25;39.10;39.70
22430;DHT22;11382;48.086;11.632;2023-05-29T08:13:53;39.60;41.10
22430;DHT22;11382;48.086;11.632;2023-05-29T08:16:22;37.70;40.80
22430;DHT22;11382;48.086;11.632;2023-05-29T08:18:51;38.40;41.10
22430;DHT22;11382;48.086;11.632;2023-05-29T08:21:19;38.90;40.40
22430;DHT22;11382;48.086;11.632;2023-05-29T08:23:49;37.70;40.20
22430;DHT22;11382;48.086;11.632;2023-05-29T08:26:17;38.10;41.00
22430;DHT22;11382;48.086;11.632;2023-05-29T08:28:45;39.10;39.60
22430;DHT22;11382;48.086;11.632;2023-05-29T08:31:13;39.30;39.20
22430;DHT22;11382;48.086;11.632;2023-05-29T08:33:41;38.50;39.80
22430;DHT22;11382;48.086;11.632;2023-05-29T08:36:10;37.80;40.50
22430;DHT22;11382;48.086;11.632;2023-05-29T08:38:38;37.60;40.60
22430;DHT22;11382;48.086;11.632;2023-05-29T08:41:08;37.30;39.60
22430;DHT22;11382;48.086;11.632;2023-05-29T08:43:41;36.40;40.80
22430;DHT22;11382;48.086;11.632;2023-05-29T08:46:10;36.90;41.70
22430;DHT22;11382;48.086;11.632;2023-05-29T08:48:43;37.80;40.90
22430;DHT22;11382;48.086;11.632;2023-05-29T08:51:19;38.00;40.10
22430;DHT22;11382;48.086;11.632;2023-05-29T08:53:48;38.30;41.10
22430;DHT22;11382;48.086;11.632;2023-05-29T08:56:17;37.80;40.20
22430;DHT22;11382;48.086;11.632;2023-05-29T08:59:01;38.10;40.50
22430;DHT22;11382;48.086;11.632;2023-05-29T09:01:33;39.80;39.20
22430;DHT22;11382;48.086;11.632;2023-05-29T09:04:02;39.90;38.70
22430;DHT22;11382;48.086;11.632;2023-05-29T09:06:30;39.50;37.60
22430;DHT22;11382;48.086;11.632;2023-05-29T09:08:58;39.80;40.40
22430;DHT22;11382;48.086;11.632;2023-05-29T09:11:28;39.60;38.20
22430;DHT22;11382;48.086;11.632;2023-05-29T09:13:56;40.00;39.40
22430;DHT22;11382;48.086;11.632;2023-05-29T09:16:25;40.30;39.80
22430;DHT22;11382;48.086;11.632;2023-05-29T09:19:03;37.90;39.60
22430;DHT22;11382;48.086;11.632;2023-05-29T09:21:32;38.60;40.30
22430;DHT22;11382;48.086;11.632;2023-05-29T09:24:04;38.70;40.90
22430;DHT22;11382;48.086;11.632;2023-05-29T09:26:34;38.00;41.30
22430;DHT22;11382;48.086;11.632;2023-05-29T09:29:03;39.50;39.60
22430;DHT22;11382;48.086;11.632;2023-05-29T09:31:31;38.70;39.10
22430;DHT22;11382;48.086;11.632;2023-05-29T09:34:02;39.40;39.50
22430;DHT22;11382;48.086;11.632;2023-05-29T09:36:30;40.60;37.50
22430;DHT22;11382;48.086;11.632;2023-05-29T09:39:02;40.10;37.40
22430;DHT22;11382;48.086;11.632;2023-05-29T09:41:44;40.90;36.20
22430;DHT22;11382;48.086;11.632;2023-05-29T09:44:12;39.20;36.40
22430;DHT22;11382;48.086;11.632;2023-05-29T09:46:41;38.40;38.20
22430;DHT22;11382;48.086;11.632;2023-05-29T09:49:11;38.00;38.60
22430;DHT22;11382;48.086;11.632;2023-05-29T09:51:40;38.20;40.00
22430;DHT22;11382;48.086;11.632;2023-05-29T09:54:15;38.40;38.80
22430;DHT22;11382;48.086;11.632;2023-05-29T09:56:45;40.00;38.00
22430;DHT22;11382;48.086;11.632;2023-05-29T09:59:15;37.70;38.90
22430;DHT22;11382;48.086;11.632;2023-05-29T10:01:47;37.20;39.20
22430;DHT22;11382;48.086;11.632;2023-05-29T10:04:15;37.30;39.20
22430;DHT22;11382;48.086;11.632;2023-05-29T10:06:45;37.70;39.50
22430;DHT22;11382;48.086;11.632;2023-05-29T10:09:18;36.80;39.50
22430;DHT22;11382;48.086;11.632;2023-05-29T10:11:49;36.60;39.30
22430;DHT22;11382;48.086;11.632;2023-05-29T10:14:21;36.00;40.10
22430;DHT22;11382;48.086;11.632;2023-05-29T10:16:50;35.00;39.40
22430;DHT22;11382;48.086;11.632;2023-05-29T10:19:24;35.10;40.00
22430;DHT22;11382;48.086;11.632;2023-05-29T10:21:53;35.60;39.40
22430;DHT22;11382;48.086;11.632;2023-05-29T10:24:22;36.40;37.80
22430;DHT22;11382;48.086;11.632;2023-05-29T10:26:52;37.70;37.70
22430;DHT22;11382;48.086;11.632;2023-05-29T10:29:28;36.90;37.80
22430;DHT22;11382;48.086;11.632;2023-05-29T10:32:05;36.20;39.10
22430;DHT22;11382;48.086;11.632;2023-05-29T10:34:39;36.50;38.60
22430;DHT22;11382;48.086;11.632;2023-05-29T10:37:18;36.50;40.10
22430;DHT22;11382;48.086;11.632;2023-05-29T10:39:49;35.00;39.40
22430;DHT22;11382;48.086;11.632;2023-05-29T10:42:49;36.30;39.40
22430;DHT22;11382;48.086;11.632;2023-05-29T10:45:47;36.80;38.10
22430;DHT22;11382;48.086;11.632;2023-05-29T10:48:38;36.90;38.40
22430;DHT22;11382;48.086;11.632;2023-05-29T10:51:08;35.40;39.60
22430;DHT22;11382;48.086;11.632;2023-05-29T10:53:40;36.20;39.30
22430;DHT22;11382;48.086;11.632;2023-05-29T10:56:14;36.60;39.00
22430;DHT22;11382;48.086;11.632;2023-05-29T10:58:52;37.00;36.70
22430;DHT22;11382;48.086;11.632;2023-05-29T11:01:21;36.20;38.80
22430;DHT22;11382;48.086;11.632;2023-05-29T11:03:50;36.80;38.60
22430;DHT22;11382;48.086;11.632;2023-05-29T11:06:21;37.10;38.80
22430;DHT22;11382;48.086;11.632;2023-05-29T11:08:54;36.10;37.20
22430;DHT22;11382;48.086;11.632;2023-05-29T11:11:29;34.80;39.00
22430;DHT22;11382;48.086;11.632;2023-05-29T11:14:02;35.60;40.20
22430;DHT22;11382;48.086;11.632;2023-05-29T11:16:37;36.20;37.70
22430;DHT22;11382;48.086;11.632;2023-05-29T11:19:06;35.90;38.10
22430;DHT22;11382;48.086;11.632;2023-05-29T11:21:49;36.30;37.80
22430;DHT22;11382;48.086;11.632;2023-05-29T11:24:22;36.20;38.20
22430;DHT22;11382;48.086;11.632;2023-05-29T11:26:51;35.20;37.60
22430;DHT22;11382;48.086;11.632;2023-05-29T11:29:26;36.30;37.60
22430;DHT22;11382;48.086;11.632;2023-05-29T11:31:57;34.90;38.60
22430;DHT22;11382;48.086;11.632;2023-05-29T11:34:30;34.20;39.90
22430;DHT22;11382;48.086;11.632;2023-05-29T11:36:59;34.70;40.60
22430;DHT22;11382;48.086;11.632;2023-05-29T11:39:28;34.90;38.10
22430;DHT22;11382;48.086;11.632;2023-05-29T11:41:56;34.20;39.90
22430;DHT22;11382;48.086;11.632;2023-05-29T11:44:25;34.40;39.00
22430;DHT22;11382;48.086;11.632;2023-05-29T11:47:00;34.60;38.60
22430;DHT22;11382;48.086;11.632;2023-05-29T11:49:30;33.30;40.90
22430;DHT22;11382;48.086;11.632;2023-05-29T11:52:07;33.30;40.10
22430;DHT22;11382;48.086;11.632;2023-05-29T11:54:38;32.20;40.50
22430;DHT22;11382;48.086;11.632;2023-05-29T11:57:06;31.10;45.00
22430;DHT22;11382;48.086;11.632;2023-05-29T11:59:35;30.30;46.30
22430;DHT22;11382;48.086;11.632;2023-05-29T12:02:06;29.50;46.20
22430;DHT22;11382;48.086;11.632;2023-05-29T12:04:35;28.50;46.80
22430;DHT22;11382;48.086;11.632;2023-05-29T12:07:16;27.20;47.40
22430;DHT22;11382;48.086;11.632;2023-05-29T12:09:44;26.50;49.60
22430;DHT22;11382;48.086;11.632;2023-05-29T12:12:14;26.20;51.00
22430;DHT22;11382;48.086;11.632;2023-05-29T12:14:43;26.10;50.00
22430;DHT22;11382;48.086;11.632;2023-05-29T12:17:11;26.00;49.80
22430;DHT22;11382;48.086;11.632;2023-05-29T12:19:39;25.90;49.80
22430;DHT22;11382;48.086;11.632;2023-05-29T12:22:07;25.80;50.70
22430;DHT22;11382;48.086;11.632;2023-05-29T12:24:35;25.80;50.10
22430;DHT22;11382;48.086;11.632;2023-05-29T12:27:09;25.60;50.20
22430;DHT22;11382;48.086;11.632;2023-05-29T12:29:37;26.10;51.40
22430;DHT22;11382;48.086;11.632;2023-05-29T12:32:10;25.70;49.90
22430;DHT22;11382;48.086;11.632;2023-05-29T12:34:38;25.50;50.40
22430;DHT22;11382;48.086;11.632;2023-05-29T12:37:09;25.30;51.10
22430;DHT22;11382;48.086;11.632;2023-05-29T12:39:41;25.30;53.10
22430;DHT22;11382;48.086;11.632;2023-05-29T12:42:08;25.20;51.90
22430;DHT22;11382;48.086;11.632;2023-05-29T12:44:37;24.90;52.00
22430;DHT22;11382;48.086;11.632;2023-05-29T12:47:06;24.90;52.10
22430;DHT22;11382;48.086;11.632;2023-05-29T12:49:36;25.00;52.30
22430;DHT22;11382;48.086;11.632;2023-05-29T12:52:05;24.90;51.70
22430;DHT22;11382;48.086;11.632;2023-05-29T12:54:35;24.70;53.00
22430;DHT22;11382;48.086;11.632;2023-05-29T12:57:03;24.70;50.80
22430;DHT22;11382;48.086;11.632;2023-05-29T12:59:32;24.50;50.30
22430;DHT22;11382;48.086;11.632;2023-05-29T13:01:59;24.10;52.80
22430;DHT22;11382;48.086;11.632;2023-05-29T13:04:28;24.20;54.00
22430;DHT22;11382;48.086;11.632;2023-05-29T13:06:57;24.30;52.90
22430;DHT22;11382;48.086;11.632;2023-05-29T13:09:26;24.50;53.40
22430;DHT22;11382;48.086;11.632;2023-05-29T13:11:54;24.20;53.90
22430;DHT22;11382;48.086;11.632;2023-05-29T13:14:22;24.30;54.40
22430;DHT22;11382;48.086;11.632;2023-05-29T13:16:50;24.30;56.40
22430;DHT22;11382;48.086;11.632;2023-05-29T13:19:18;24.10;55.70
22430;DHT22;11382;48.086;11.632;2023-05-29T13:21:46;24.20;55.40
22430;DHT22;11382;48.086;11.632;2023-05-29T13:24:17;24.30;54.80
22430;DHT22;11382;48.086;11.632;2023-05-29T13:26:45;24.20;54.90
22430;DHT22;11382;48.086;11.632;2023-05-29T13:29:12;24.00;52.60
22430;DHT22;11382;48.086;11.632;2023-05-29T13:31:40;23.80;53.70
22430;DHT22;11382;48.086;11.632;2023-05-29T13:34:09;23.60;53.90
22430;DHT22;11382;48.086;11.632;2023-05-29T13:36:37;24.00;53.80
22430;DHT22;11382;48.086;11.632;2023-05-29T13:39:05;24.00;53.10
22430;DHT22;11382;48.086;11.632;2023-05-29T13:41:34;23.80;53.30
22430;DHT22;11382;48.086;11.632;2023-05-29T13:44:03;24.00;54.60
22430;DHT22;11382;48.086;11.632;2023-05-29T13:46:31;24.10;54.30
22430;DHT22;11382;48.086;11.632;2023-05-29T13:48:59;24.10;53.90
22430;DHT22;11382;48.086;11.632;2023-05-29T13:51:27;23.90;53.00
22430;DHT22;11382;48.086;11.632;2023-05-29T13:53:55;23.90;55.00
22430;DHT22;11382;48.086;11.632;2023-05-29T13:56:22;24.00;56.70
22430;DHT22;11382;48.086;11.632;2023-05-29T13:58:54;23.90;54.80
22430;DHT22;11382;48.086;11.632;2023-05-29T14:01:23;23.90;54.50
22430;DHT22;11382;48.086;11.632;2023-05-29T14:03:51;23.80;54.60
22430;DHT22;11382;48.086;11.632;2023-05-29T14:06:19;24.00;55.50
22430;DHT22;11382;48.086;11.632;2023-05-29T14:08:47;23.80;54.50
22430;DHT22;11382;48.086;11.632;2023-05-29T14:11:15;23.70;53.20
22430;DHT22;11382;48.086;11.632;2023-05-29T14:13:43;23.60;54.10
22430;DHT22;11382;48.086;11.632;2023-05-29T14:16:13;23.50;55.00
22430;DHT22;11382;48.086;11.632;2023-05-29T14:18:42;23.70;54.40
22430;DHT22;11382;48.086;11.632;2023-05-29T14:21:10;23.60;53.50
22430;DHT22;11382;48.086;11.632;2023-05-29T14:23:38;23.60;55.00
22430;DHT22;11382;48.086;11.632;2023-05-29T14:26:06;23.40;55.90
22430;DHT22;11382;48.086;11.632;2023-05-29T14:28:34;23.60;58.10
22430;DHT22;11382;48.086;11.632;2023-05-29T14:31:02;23.60;56.30
22430;DHT22;11382;48.086;11.632;2023-05-29T14:33:31;23.60;57.80
22430;DHT22;11382;48.086;11.632;2023-05-29T14:36:00;23.60;56.20
22430;DHT22;11382;48.086;11.632;2023-05-29T14:38:27;23.70;57.10
22430;DHT22;11382;48.086;11.632;2023-05-29T14:40:56;23.50;57.00
22430;DHT22;11382;48.086;11.632;2023-05-29T14:43:34;23.40;55.40
22430;DHT22;11382;48.086;11.632;2023-05-29T14:46:03;23.20;55.20
22430;DHT22;11382;48.086;11.632;2023-05-29T14:48:32;23.20;55.30
22430;DHT22;11382;48.086;11.632;2023-05-29T14:51:00;23.50;57.70
22430;DHT22;11382;48.086;11.632;2023-05-29T14:53:28;23.40;55.70
22430;DHT22;11382;48.086;11.632;2023-05-29T14:55:58;23.20;55.00
22430;DHT22;11382;48.086;11.632;2023-05-29T14:58:26;23.10;55.90
22430;DHT22;11382;48.086;11.632;2023-05-29T15:00:54;23.20;56.60
22430;DHT22;11382;48.086;11.632;2023-05-29T15:03:22;23.20;57.20
22430;DHT22;11382;48.086;11.632;2023-05-29T15:05:54;23.20;56.90
22430;DHT22;11382;48.086;11.632;2023-05-29T15:08:22;23.20;58.00
22430;DHT22;11382;48.086;11.632;2023-05-29T15:10:50;23.10;56.50
22430;DHT22;11382;48.086;11.632;2023-05-29T15:13:18;23.20;57.20
22430;DHT22;11382;48.086;11.632;2023-05-29T15:15:47;23.30;57.60
22430;DHT22;11382;48.086;11.632;2023-05-29T15:18:14;23.30;56.90
22430;DHT22;11382;48.086;11.632;2023-05-29T15:20:43;23.00;57.90
22430;DHT22;11382;48.086;11.632;2023-05-29T15:23:12;23.00;58.00
22430;DHT22;11382;48.086;11.632;2023-05-29T15:25:42;23.10;57.50
22430;DHT22;11382;48.086;11.632;2023-05-29T15:28:14;23.00;57.40
22430;DHT22;11382;48.086;11.632;2023-05-29T15:30:42;23.00;57.30
22430;DHT22;11382;48.086;11.632;2023-05-29T15:33:10;23.00;57.10
22430;DHT22;11382;48.086;11.632;2023-05-29T15:35:38;23.10;57.50
22430;DHT22;11382;48.086;11.632;2023-05-29T15:38:08;23.10;56.40